sensor_id;sensor_type;location;lat;lon;timestamp;P1;durP1;ratioP1;P2;durP2;ratioP2
49972;SDS011;35865;49.798;10.968;2022-08-21T00:01:18;56.83;;;9.77;;
49972;SDS011;35865;49.798;10.968;2022-08-21T00:03:46;23.08;;;8.45;;
49972;SDS011;35865;49.798;10.968;2022-08-21T00:06:13;10.20;;;7.65;;
49972;SDS011;35865;49.798;10.968;2022-08-21T00:08:40;12.50;;;7.50;;
49972;SDS011;35865;49.798;10.968;2022-08-21T00:11:07;13.95;;;7.65;;
49972;SDS011;35865;49.798;10.968;2022-08-21T00:13:36;25.08;;;8.13;;
49972;SDS011;35865;49.798;10.968;2022-08-21T00:16:03;34.25;;;9.30;;
49972;SDS011;35865;49.798;10.968;2022-08-21T00:18:29;32.70;;;8.73;;
49972;SDS011;35865;49.798;10.968;2022-08-21T00:20:56;46.55;;;9.23;;
49972;SDS011;35865;49.798;10.968;2022-08-21T00:23:23;21.80;;;7.30;;
49972;SDS011;35865;49.798;10.968;2022-08-21T00:25:49;11.10;;;6.97;;
49972;SDS011;35865;49.798;10.968;2022-08-21T00:28:15;13.13;;;7.05;;
49972;SDS011;35865;49.798;10.968;2022-08-21T00:30:44;14.18;;;7.25;;
49972;SDS011;35865;49.798;10.968;2022-08-21T00:33:11;14.05;;;6.78;;
49972;SDS011;35865;49.798;10.968;2022-08-21T00:35:39;18.20;;;6.53;;
49972;SDS011;35865;49.798;10.968;2022-08-21T00:38:07;29.20;;;7.93;;
49972;SDS011;35865;49.798;10.968;2022-08-21T00:40:35;12.45;;;6.30;;
49972;SDS011;35865;49.798;10.968;2022-08-21T00:43:05;22.02;;;8.27;;
49972;SDS011;35865;49.798;10.968;2022-08-21T00:45:33;25.13;;;7.57;;
49972;SDS011;35865;49.798;10.968;2022-08-21T00:48:01;24.23;;;7.95;;
49972;SDS011;35865;49.798;10.968;2022-08-21T00:50:29;32.40;;;8.10;;
49972;SDS011;35865;49.798;10.968;2022-08-21T00:52:58;15.93;;;6.63;;
49972;SDS011;35865;49.798;10.968;2022-08-21T00:55:26;31.98;;;7.53;;
49972;SDS011;35865;49.798;10.968;2022-08-21T00:57:55;35.13;;;7.18;;
49972;SDS011;35865;49.798;10.968;2022-08-21T01:00:25;29.92;;;6.97;;
49972;SDS011;35865;49.798;10.968;2022-08-21T01:02:54;59.38;;;9.23;;
49972;SDS011;35865;49.798;10.968;2022-08-21T01:05:23;121.55;;;12.48;;
49972;SDS011;35865;49.798;10.968;2022-08-21T01:07:50;96.15;;;10.05;;
49972;SDS011;35865;49.798;10.968;2022-08-21T01:10:17;120.85;;;12.07;;
49972;SDS011;35865;49.798;10.968;2022-08-21T01:12:44;44.78;;;7.65;;
49972;SDS011;35865;49.798;10.968;2022-08-21T01:15:11;76.65;;;10.15;;
49972;SDS011;35865;49.798;10.968;2022-08-21T01:17:41;50.65;;;8.13;;
49972;SDS011;35865;49.798;10.968;2022-08-21T01:20:08;44.03;;;8.00;;
49972;SDS011;35865;49.798;10.968;2022-08-21T01:22:38;92.80;;;10.93;;
49972;SDS011;35865;49.798;10.968;2022-08-21T01:25:06;40.53;;;6.88;;
49972;SDS011;35865;49.798;10.968;2022-08-21T01:27:33;51.10;;;7.75;;
49972;SDS011;35865;49.798;10.968;2022-08-21T01:30:03;42.92;;;7.90;;
49972;SDS011;35865;49.798;10.968;2022-08-21T01:32:35;34.10;;;7.18;;
49972;SDS011;35865;49.798;10.968;2022-08-21T01:35:02;49.03;;;7.88;;
49972;SDS011;35865;49.798;10.968;2022-08-21T01:37:29;121.43;;;11.82;;
49972;SDS011;35865;49.798;10.968;2022-08-21T01:39:57;39.65;;;6.75;;
49972;SDS011;35865;49.798;10.968;2022-08-21T01:42:24;28.05;;;6.25;;
49972;SDS011;35865;49.798;10.968;2022-08-21T01:44:50;73.47;;;8.65;;
49972;SDS011;35865;49.798;10.968;2022-08-21T01:47:17;34.58;;;6.40;;
49972;SDS011;35865;49.798;10.968;2022-08-21T01:49:44;108.30;;;10.27;;
49972;SDS011;35865;49.798;10.968;2022-08-21T01:52:11;43.80;;;7.32;;
49972;SDS011;35865;49.798;10.968;2022-08-21T01:54:38;35.10;;;7.40;;
49972;SDS011;35865;49.798;10.968;2022-08-21T01:57:06;39.33;;;7.57;;
49972;SDS011;35865;49.798;10.968;2022-08-21T01:59:33;74.47;;;9.77;;
49972;SDS011;35865;49.798;10.968;2022-08-21T02:02:01;32.10;;;7.95;;
49972;SDS011;35865;49.798;10.968;2022-08-21T02:04:28;59.42;;;8.63;;
49972;SDS011;35865;49.798;10.968;2022-08-21T02:06:55;214.38;;;17.63;;
49972;SDS011;35865;49.798;10.968;2022-08-21T02:09:22;77.65;;;9.63;;
49972;SDS011;35865;49.798;10.968;2022-08-21T02:11:48;55.55;;;8.50;;
49972;SDS011;35865;49.798;10.968;2022-08-21T02:14:17;118.63;;;10.98;;
49972;SDS011;35865;49.798;10.968;2022-08-21T02:16:44;60.78;;;9.88;;
49972;SDS011;35865;49.798;10.968;2022-08-21T02:19:12;61.53;;;9.20;;
49972;SDS011;35865;49.798;10.968;2022-08-21T02:21:40;88.13;;;10.55;;
49972;SDS011;35865;49.798;10.968;2022-08-21T02:24:08;92.43;;;11.10;;
49972;SDS011;35865;49.798;10.968;2022-08-21T02:26:35;120.63;;;11.98;;
49972;SDS011;35865;49.798;10.968;2022-08-21T02:29:02;102.85;;;10.15;;
49972;SDS011;35865;49.798;10.968;2022-08-21T02:31:30;62.42;;;9.73;;
49972;SDS011;35865;49.798;10.968;2022-08-21T02:33:57;107.10;;;12.05;;
49972;SDS011;35865;49.798;10.968;2022-08-21T02:36:24;79.18;;;9.85;;
49972;SDS011;35865;49.798;10.968;2022-08-21T02:38:53;177.95;;;15.00;;
49972;SDS011;35865;49.798;10.968;2022-08-21T02:41:20;124.85;;;12.50;;
49972;SDS011;35865;49.798;10.968;2022-08-21T02:43:47;60.53;;;9.43;;
49972;SDS011;35865;49.798;10.968;2022-08-21T02:46:15;224.25;;;17.63;;
49972;SDS011;35865;49.798;10.968;2022-08-21T02:48:44;156.90;;;13.38;;
49972;SDS011;35865;49.798;10.968;2022-08-21T02:51:12;60.38;;;8.70;;
49972;SDS011;35865;49.798;10.968;2022-08-21T02:53:42;98.15;;;9.90;;
49972;SDS011;35865;49.798;10.968;2022-08-21T02:56:11;115.65;;;12.20;;
49972;SDS011;35865;49.798;10.968;2022-08-21T02:58:40;103.80;;;10.43;;
49972;SDS011;35865;49.798;10.968;2022-08-21T03:01:10;150.57;;;11.55;;
49972;SDS011;35865;49.798;10.968;2022-08-21T03:03:37;104.85;;;12.32;;
49972;SDS011;35865;49.798;10.968;2022-08-21T03:06:08;61.08;;;7.78;;
49972;SDS011;35865;49.798;10.968;2022-08-21T03:08:35;61.10;;;8.23;;
49972;SDS011;35865;49.798;10.968;2022-08-21T03:11:03;52.35;;;7.07;;
49972;SDS011;35865;49.798;10.968;2022-08-21T03:13:30;90.90;;;9.02;;
49972;SDS011;35865;49.798;10.968;2022-08-21T03:15:57;92.00;;;9.07;;
49972;SDS011;35865;49.798;10.968;2022-08-21T03:18:23;69.82;;;8.95;;
49972;SDS011;35865;49.798;10.968;2022-08-21T03:20:50;49.97;;;6.32;;
49972;SDS011;35865;49.798;10.968;2022-08-21T03:23:18;59.30;;;8.70;;
49972;SDS011;35865;49.798;10.968;2022-08-21T03:25:45;38.13;;;6.60;;
49972;SDS011;35865;49.798;10.968;2022-08-21T03:28:17;44.92;;;6.05;;
49972;SDS011;35865;49.798;10.968;2022-08-21T03:30:47;34.15;;;5.18;;
49972;SDS011;35865;49.798;10.968;2022-08-21T03:33:15;50.00;;;7.72;;
49972;SDS011;35865;49.798;10.968;2022-08-21T03:35:42;61.17;;;8.05;;
49972;SDS011;35865;49.798;10.968;2022-08-21T03:38:11;61.90;;;8.88;;
49972;SDS011;35865;49.798;10.968;2022-08-21T03:40:39;47.33;;;7.30;;
49972;SDS011;35865;49.798;10.968;2022-08-21T03:43:06;153.73;;;11.88;;
49972;SDS011;35865;49.798;10.968;2022-08-21T03:45:34;28.63;;;6.35;;
49972;SDS011;35865;49.798;10.968;2022-08-21T03:48:01;22.50;;;5.80;;
49972;SDS011;35865;49.798;10.968;2022-08-21T03:50:30;60.97;;;7.70;;
49972;SDS011;35865;49.798;10.968;2022-08-21T03:52:59;30.92;;;6.03;;
49972;SDS011;35865;49.798;10.968;2022-08-21T03:55:25;78.25;;;8.25;;
49972;SDS011;35865;49.798;10.968;2022-08-21T03:57:53;107.78;;;10.10;;
49972;SDS011;35865;49.798;10.968;2022-08-21T04:00:20;101.75;;;9.68;;
49972;SDS011;35865;49.798;10.968;2022-08-21T04:02:47;120.97;;;9.30;;
49972;SDS011;35865;49.798;10.968;2022-08-21T04:05:14;84.35;;;8.00;;
49972;SDS011;35865;49.798;10.968;2022-08-21T04:07:52;105.68;;;8.60;;
49972;SDS011;35865;49.798;10.968;2022-08-21T04:10:19;56.58;;;7.25;;
49972;SDS011;35865;49.798;10.968;2022-08-21T04:12:45;64.55;;;7.05;;
49972;SDS011;35865;49.798;10.968;2022-08-21T04:15:13;38.15;;;5.95;;
49972;SDS011;35865;49.798;10.968;2022-08-21T04:17:39;91.15;;;7.75;;
49972;SDS011;35865;49.798;10.968;2022-08-21T04:20:06;59.22;;;6.43;;
49972;SDS011;35865;49.798;10.968;2022-08-21T04:22:33;81.13;;;8.63;;
49972;SDS011;35865;49.798;10.968;2022-08-21T04:24:59;50.83;;;7.35;;
49972;SDS011;35865;49.798;10.968;2022-08-21T04:27:26;24.92;;;6.15;;
49972;SDS011;35865;49.798;10.968;2022-08-21T04:29:53;50.70;;;5.97;;
49972;SDS011;35865;49.798;10.968;2022-08-21T04:32:22;60.88;;;6.45;;
49972;SDS011;35865;49.798;10.968;2022-08-21T04:34:49;93.35;;;8.73;;
49972;SDS011;35865;49.798;10.968;2022-08-21T04:37:16;57.70;;;7.28;;
49972;SDS011;35865;49.798;10.968;2022-08-21T04:39:42;52.92;;;6.75;;
49972;SDS011;35865;49.798;10.968;2022-08-21T04:42:09;48.83;;;6.85;;
49972;SDS011;35865;49.798;10.968;2022-08-21T04:44:35;60.90;;;6.65;;
49972;SDS011;35865;49.798;10.968;2022-08-21T04:47:02;32.58;;;5.70;;
49972;SDS011;35865;49.798;10.968;2022-08-21T04:49:32;15.25;;;4.88;;
49972;SDS011;35865;49.798;10.968;2022-08-21T04:51:58;35.47;;;6.18;;
49972;SDS011;35865;49.798;10.968;2022-08-21T04:54:25;32.92;;;5.22;;
49972;SDS011;35865;49.798;10.968;2022-08-21T04:56:52;21.58;;;5.05;;
49972;SDS011;35865;49.798;10.968;2022-08-21T04:59:24;47.63;;;7.10;;
49972;SDS011;35865;49.798;10.968;2022-08-21T05:01:56;52.88;;;6.47;;
49972;SDS011;35865;49.798;10.968;2022-08-21T05:04:25;42.88;;;6.10;;
49972;SDS011;35865;49.798;10.968;2022-08-21T05:06:56;69.32;;;7.38;;
49972;SDS011;35865;49.798;10.968;2022-08-21T05:09:25;38.38;;;6.47;;
49972;SDS011;35865;49.798;10.968;2022-08-21T05:11:53;67.60;;;8.20;;
49972;SDS011;35865;49.798;10.968;2022-08-21T05:14:20;75.80;;;7.65;;
49972;SDS011;35865;49.798;10.968;2022-08-21T05:16:46;142.05;;;10.07;;
49972;SDS011;35865;49.798;10.968;2022-08-21T05:19:13;40.95;;;5.72;;
49972;SDS011;35865;49.798;10.968;2022-08-21T05:21:41;26.25;;;5.18;;
49972;SDS011;35865;49.798;10.968;2022-08-21T05:24:11;37.30;;;7.20;;
49972;SDS011;35865;49.798;10.968;2022-08-21T05:26:37;62.92;;;7.45;;
49972;SDS011;35865;49.798;10.968;2022-08-21T05:29:05;43.58;;;7.13;;
49972;SDS011;35865;49.798;10.968;2022-08-21T05:31:31;35.08;;;6.88;;
49972;SDS011;35865;49.798;10.968;2022-08-21T05:33:58;13.15;;;5.13;;
49972;SDS011;35865;49.798;10.968;2022-08-21T05:36:24;18.85;;;6.65;;
49972;SDS011;35865;49.798;10.968;2022-08-21T05:38:51;17.98;;;7.22;;
49972;SDS011;35865;49.798;10.968;2022-08-21T05:41:19;207.60;;;14.80;;
49972;SDS011;35865;49.798;10.968;2022-08-21T05:43:45;55.03;;;7.60;;
49972;SDS011;35865;49.798;10.968;2022-08-21T05:46:11;44.63;;;7.32;;
49972;SDS011;35865;49.798;10.968;2022-08-21T05:48:38;75.63;;;8.68;;
49972;SDS011;35865;49.798;10.968;2022-08-21T05:51:05;30.90;;;6.25;;
49972;SDS011;35865;49.798;10.968;2022-08-21T05:53:33;49.17;;;6.53;;
49972;SDS011;35865;49.798;10.968;2022-08-21T05:56:00;18.95;;;5.72;;
49972;SDS011;35865;49.798;10.968;2022-08-21T05:58:30;64.88;;;8.40;;
49972;SDS011;35865;49.798;10.968;2022-08-21T06:00:58;37.88;;;7.28;;
49972;SDS011;35865;49.798;10.968;2022-08-21T06:03:27;40.53;;;7.32;;
49972;SDS011;35865;49.798;10.968;2022-08-21T06:05:55;26.25;;;6.32;;
49972;SDS011;35865;49.798;10.968;2022-08-21T06:08:22;25.13;;;6.32;;
49972;SDS011;35865;49.798;10.968;2022-08-21T06:10:50;22.65;;;6.55;;
49972;SDS011;35865;49.798;10.968;2022-08-21T06:13:18;34.92;;;7.50;;
49972;SDS011;35865;49.798;10.968;2022-08-21T06:15:47;37.53;;;7.05;;
49972;SDS011;35865;49.798;10.968;2022-08-21T06:18:14;26.17;;;6.72;;
49972;SDS011;35865;49.798;10.968;2022-08-21T06:20:40;44.42;;;7.57;;
49972;SDS011;35865;49.798;10.968;2022-08-21T06:23:07;23.00;;;6.55;;
49972;SDS011;35865;49.798;10.968;2022-08-21T06:25:34;26.85;;;7.20;;
49972;SDS011;35865;49.798;10.968;2022-08-21T06:28:01;15.63;;;6.07;;
49972;SDS011;35865;49.798;10.968;2022-08-21T06:30:29;31.40;;;7.32;;
49972;SDS011;35865;49.798;10.968;2022-08-21T06:32:57;41.42;;;7.55;;
49972;SDS011;35865;49.798;10.968;2022-08-21T06:35:23;25.48;;;6.35;;
49972;SDS011;35865;49.798;10.968;2022-08-21T06:37:50;22.42;;;5.57;;
49972;SDS011;35865;49.798;10.968;2022-08-21T06:40:17;13.02;;;5.78;;
49972;SDS011;35865;49.798;10.968;2022-08-21T06:42:43;23.48;;;6.70;;
49972;SDS011;35865;49.798;10.968;2022-08-21T06:45:10;35.92;;;6.25;;
49972;SDS011;35865;49.798;10.968;2022-08-21T06:47:36;33.88;;;7.72;;
49972;SDS011;35865;49.798;10.968;2022-08-21T06:50:05;9.27;;;5.90;;
49972;SDS011;35865;49.798;10.968;2022-08-21T06:52:33;11.35;;;6.10;;
49972;SDS011;35865;49.798;10.968;2022-08-21T06:55:00;11.68;;;6.55;;
49972;SDS011;35865;49.798;10.968;2022-08-21T06:57:26;8.45;;;6.15;;
49972;SDS011;35865;49.798;10.968;2022-08-21T06:59:53;9.45;;;5.32;;
49972;SDS011;35865;49.798;10.968;2022-08-21T07:02:19;6.72;;;5.53;;
49972;SDS011;35865;49.798;10.968;2022-08-21T07:04:45;9.98;;;6.18;;
49972;SDS011;35865;49.798;10.968;2022-08-21T07:07:13;14.07;;;6.50;;
49972;SDS011;35865;49.798;10.968;2022-08-21T07:09:40;9.43;;;6.32;;
49972;SDS011;35865;49.798;10.968;2022-08-21T07:12:06;15.18;;;6.53;;
49972;SDS011;35865;49.798;10.968;2022-08-21T07:14:33;20.77;;;6.15;;
49972;SDS011;35865;49.798;10.968;2022-08-21T07:17:00;12.82;;;5.85;;
49972;SDS011;35865;49.798;10.968;2022-08-21T07:19:26;18.00;;;6.60;;
49972;SDS011;35865;49.798;10.968;2022-08-21T07:21:53;22.30;;;7.63;;
49972;SDS011;35865;49.798;10.968;2022-08-21T07:24:25;8.48;;;6.15;;
49972;SDS011;35865;49.798;10.968;2022-08-21T07:26:52;10.05;;;7.25;;
49972;SDS011;35865;49.798;10.968;2022-08-21T07:29:18;20.60;;;7.07;;
49972;SDS011;35865;49.798;10.968;2022-08-21T07:31:45;13.85;;;6.65;;
49972;SDS011;35865;49.798;10.968;2022-08-21T07:34:11;10.55;;;6.82;;
49972;SDS011;35865;49.798;10.968;2022-08-21T07:36:38;9.38;;;6.97;;
49972;SDS011;35865;49.798;10.968;2022-08-21T07:39:04;10.75;;;7.78;;
49972;SDS011;35865;49.798;10.968;2022-08-21T07:41:32;11.88;;;7.00;;
49972;SDS011;35865;49.798;10.968;2022-08-21T07:44:00;8.80;;;7.05;;
49972;SDS011;35865;49.798;10.968;2022-08-21T07:46:27;8.23;;;6.88;;
49972;SDS011;35865;49.798;10.968;2022-08-21T07:48:53;11.88;;;7.43;;
49972;SDS011;35865;49.798;10.968;2022-08-21T07:51:21;9.23;;;7.78;;
49972;SDS011;35865;49.798;10.968;2022-08-21T07:53:52;9.15;;;7.82;;
49972;SDS011;35865;49.798;10.968;2022-08-21T07:56:20;9.07;;;7.38;;
49972;SDS011;35865;49.798;10.968;2022-08-21T07:58:48;8.45;;;7.47;;
49972;SDS011;35865;49.798;10.968;2022-08-21T08:01:15;15.27;;;8.18;;
49972;SDS011;35865;49.798;10.968;2022-08-21T08:03:41;11.05;;;7.88;;
49972;SDS011;35865;49.798;10.968;2022-08-21T08:06:08;9.90;;;7.43;;
49972;SDS011;35865;49.798;10.968;2022-08-21T08:08:37;11.48;;;8.63;;
49972;SDS011;35865;49.798;10.968;2022-08-21T08:11:04;8.75;;;7.63;;
49972;SDS011;35865;49.798;10.968;2022-08-21T08:13:31;7.90;;;6.80;;
49972;SDS011;35865;49.798;10.968;2022-08-21T08:15:59;9.75;;;7.72;;
49972;SDS011;35865;49.798;10.968;2022-08-21T08:18:26;8.73;;;7.70;;
49972;SDS011;35865;49.798;10.968;2022-08-21T08:20:52;9.48;;;7.85;;
49972;SDS011;35865;49.798;10.968;2022-08-21T08:23:18;8.95;;;7.60;;
49972;SDS011;35865;49.798;10.968;2022-08-21T08:25:45;11.95;;;8.52;;
49972;SDS011;35865;49.798;10.968;2022-08-21T08:28:11;9.02;;;7.97;;
49972;SDS011;35865;49.798;10.968;2022-08-21T08:30:38;10.25;;;8.68;;
49972;SDS011;35865;49.798;10.968;2022-08-21T08:33:05;9.57;;;8.57;;
49972;SDS011;35865;49.798;10.968;2022-08-21T08:35:32;10.38;;;9.13;;
49972;SDS011;35865;49.798;10.968;2022-08-21T08:37:59;11.23;;;9.07;;
49972;SDS011;35865;49.798;10.968;2022-08-21T08:40:28;13.20;;;9.85;;
49972;SDS011;35865;49.798;10.968;2022-08-21T08:43:01;11.48;;;10.15;;
49972;SDS011;35865;49.798;10.968;2022-08-21T08:45:27;10.40;;;8.68;;
49972;SDS011;35865;49.798;10.968;2022-08-21T08:47:58;10.32;;;9.00;;
49972;SDS011;35865;49.798;10.968;2022-08-21T08:50:33;9.43;;;8.43;;
49972;SDS011;35865;49.798;10.968;2022-08-21T08:53:06;12.82;;;11.48;;
49972;SDS011;35865;49.798;10.968;2022-08-21T08:55:37;10.73;;;9.48;;
49972;SDS011;35865;49.798;10.968;2022-08-21T08:58:05;10.35;;;9.25;;
49972;SDS011;35865;49.798;10.968;2022-08-21T09:00:32;10.07;;;9.07;;
49972;SDS011;35865;49.798;10.968;2022-08-21T09:03:00;11.52;;;10.00;;
49972;SDS011;35865;49.798;10.968;2022-08-21T09:05:29;10.38;;;9.35;;
49972;SDS011;35865;49.798;10.968;2022-08-21T09:10:57;10.43;;;9.32;;
49972;SDS011;35865;49.798;10.968;2022-08-21T09:13:31;10.50;;;9.50;;
49972;SDS011;35865;49.798;10.968;2022-08-21T09:16:15;9.82;;;8.60;;
49972;SDS011;35865;49.798;10.968;2022-08-21T09:18:51;9.23;;;8.32;;
49972;SDS011;35865;49.798;10.968;2022-08-21T09:21:36;10.63;;;9.52;;
49972;SDS011;35865;49.798;10.968;2022-08-21T09:24:14;11.75;;;10.57;;
49972;SDS011;35865;49.798;10.968;2022-08-21T09:27:00;9.82;;;8.82;;
49972;SDS011;35865;49.798;10.968;2022-08-21T09:29:31;11.27;;;9.55;;
49972;SDS011;35865;49.798;10.968;2022-08-21T09:32:00;11.43;;;10.32;;
49972;SDS011;35865;49.798;10.968;2022-08-21T09:34:29;11.43;;;10.30;;
49972;SDS011;35865;49.798;10.968;2022-08-21T09:36:58;11.07;;;9.88;;
49972;SDS011;35865;49.798;10.968;2022-08-21T09:39:26;12.07;;;10.88;;
49972;SDS011;35865;49.798;10.968;2022-08-21T09:41:55;13.10;;;11.38;;
49972;SDS011;35865;49.798;10.968;2022-08-21T09:44:24;14.25;;;12.85;;
49972;SDS011;35865;49.798;10.968;2022-08-21T09:46:52;17.38;;;15.25;;
49972;SDS011;35865;49.798;10.968;2022-08-21T09:49:26;17.20;;;15.57;;
49972;SDS011;35865;49.798;10.968;2022-08-21T09:51:53;16.80;;;15.20;;
49972;SDS011;35865;49.798;10.968;2022-08-21T09:54:24;18.05;;;16.42;;
49972;SDS011;35865;49.798;10.968;2022-08-21T09:56:55;21.38;;;19.20;;
49972;SDS011;35865;49.798;10.968;2022-08-21T09:59:41;21.80;;;19.80;;
49972;SDS011;35865;49.798;10.968;2022-08-21T10:02:22;20.85;;;18.83;;
49972;SDS011;35865;49.798;10.968;2022-08-21T10:04:54;21.73;;;19.63;;
49972;SDS011;35865;49.798;10.968;2022-08-21T10:07:23;23.40;;;21.02;;
49972;SDS011;35865;49.798;10.968;2022-08-21T10:09:59;24.80;;;22.50;;
49972;SDS011;35865;49.798;10.968;2022-08-21T10:12:31;23.58;;;21.27;;
49972;SDS011;35865;49.798;10.968;2022-08-21T10:15:09;25.52;;;23.13;;
49972;SDS011;35865;49.798;10.968;2022-08-21T10:17:46;25.45;;;22.95;;
49972;SDS011;35865;49.798;10.968;2022-08-21T10:20:20;25.73;;;23.33;;
49972;SDS011;35865;49.798;10.968;2022-08-21T10:22:53;26.08;;;23.58;;
49972;SDS011;35865;49.798;10.968;2022-08-21T10:25:31;23.27;;;20.95;;
49972;SDS011;35865;49.798;10.968;2022-08-21T10:28:05;23.45;;;21.23;;
49972;SDS011;35865;49.798;10.968;2022-08-21T10:30:38;24.58;;;22.27;;
49972;SDS011;35865;49.798;10.968;2022-08-21T10:33:19;23.98;;;21.77;;
49972;SDS011;35865;49.798;10.968;2022-08-21T10:35:53;23.70;;;21.45;;
49972;SDS011;35865;49.798;10.968;2022-08-21T10:38:36;21.95;;;19.83;;
49972;SDS011;35865;49.798;10.968;2022-08-21T10:41:16;19.08;;;17.35;;
49972;SDS011;35865;49.798;10.968;2022-08-21T10:43:52;20.27;;;18.40;;
49972;SDS011;35865;49.798;10.968;2022-08-21T10:46:29;20.63;;;18.73;;
49972;SDS011;35865;49.798;10.968;2022-08-21T10:49:07;17.92;;;16.23;;
49972;SDS011;35865;49.798;10.968;2022-08-21T10:51:46;17.05;;;15.43;;
49972;SDS011;35865;49.798;10.968;2022-08-21T10:54:23;15.63;;;14.23;;
49972;SDS011;35865;49.798;10.968;2022-08-21T10:57:01;16.65;;;15.05;;
49972;SDS011;35865;49.798;10.968;2022-08-21T10:59:33;13.43;;;12.18;;
49972;SDS011;35865;49.798;10.968;2022-08-21T11:02:09;18.55;;;15.48;;
49972;SDS011;35865;49.798;10.968;2022-08-21T11:04:49;15.75;;;14.15;;
49972;SDS011;35865;49.798;10.968;2022-08-21T11:07:22;15.38;;;13.80;;
49972;SDS011;35865;49.798;10.968;2022-08-21T11:09:55;12.10;;;11.00;;
49972;SDS011;35865;49.798;10.968;2022-08-21T11:12:25;13.65;;;12.20;;
49972;SDS011;35865;49.798;10.968;2022-08-21T11:15:00;13.98;;;12.65;;
49972;SDS011;35865;49.798;10.968;2022-08-21T11:17:32;13.65;;;11.88;;
49972;SDS011;35865;49.798;10.968;2022-08-21T11:20:03;10.57;;;9.57;;
49972;SDS011;35865;49.798;10.968;2022-08-21T11:22:37;12.35;;;11.15;;
49972;SDS011;35865;49.798;10.968;2022-08-21T11:25:11;10.20;;;9.20;;
49972;SDS011;35865;49.798;10.968;2022-08-21T11:27:45;9.48;;;8.65;;
49972;SDS011;35865;49.798;10.968;2022-08-21T11:30:15;9.18;;;8.35;;
49972;SDS011;35865;49.798;10.968;2022-08-21T11:32:53;9.07;;;7.93;;
49972;SDS011;35865;49.798;10.968;2022-08-21T11:35:30;9.77;;;8.75;;
49972;SDS011;35865;49.798;10.968;2022-08-21T11:38:05;9.25;;;8.35;;
49972;SDS011;35865;49.798;10.968;2022-08-21T11:40:51;9.15;;;8.35;;
49972;SDS011;35865;49.798;10.968;2022-08-21T11:43:31;58.10;;;12.73;;
49972;SDS011;35865;49.798;10.968;2022-08-21T11:46:06;8.30;;;7.35;;
49972;SDS011;35865;49.798;10.968;2022-08-21T11:48:45;8.60;;;7.80;;
49972;SDS011;35865;49.798;10.968;2022-08-21T11:51:26;11.15;;;8.40;;
49972;SDS011;35865;49.798;10.968;2022-08-21T11:54:01;8.48;;;7.55;;
49972;SDS011;35865;49.798;10.968;2022-08-21T11:56:32;7.57;;;6.70;;
49972;SDS011;35865;49.798;10.968;2022-08-21T11:59:06;6.22;;;5.53;;
49972;SDS011;35865;49.798;10.968;2022-08-21T12:01:36;7.57;;;6.47;;
49972;SDS011;35865;49.798;10.968;2022-08-21T12:04:08;6.63;;;5.93;;
49972;SDS011;35865;49.798;10.968;2022-08-21T12:06:43;6.35;;;5.75;;
49972;SDS011;35865;49.798;10.968;2022-08-21T12:09:10;7.10;;;6.40;;
49972;SDS011;35865;49.798;10.968;2022-08-21T12:11:59;6.45;;;5.72;;
49972;SDS011;35865;49.798;10.968;2022-08-21T12:14:36;6.20;;;5.60;;
49972;SDS011;35865;49.798;10.968;2022-08-21T12:17:06;5.80;;;5.20;;
49972;SDS011;35865;49.798;10.968;2022-08-21T12:19:34;5.85;;;4.82;;
49972;SDS011;35865;49.798;10.968;2022-08-21T12:22:08;5.18;;;4.30;;
49972;SDS011;35865;49.798;10.968;2022-08-21T12:24:37;6.55;;;5.85;;
49972;SDS011;35865;49.798;10.968;2022-08-21T12:27:13;6.60;;;5.00;;
49972;SDS011;35865;49.798;10.968;2022-08-21T12:29:51;6.55;;;4.95;;
49972;SDS011;35865;49.798;10.968;2022-08-21T12:32:25;4.97;;;4.43;;
49972;SDS011;35865;49.798;10.968;2022-08-21T12:34:53;5.88;;;4.55;;
49972;SDS011;35865;49.798;10.968;2022-08-21T12:37:24;5.53;;;3.97;;
49972;SDS011;35865;49.798;10.968;2022-08-21T12:40:01;4.97;;;4.35;;
49972;SDS011;35865;49.798;10.968;2022-08-21T12:42:31;5.07;;;4.30;;
49972;SDS011;35865;49.798;10.968;2022-08-21T12:45:09;5.10;;;4.47;;
49972;SDS011;35865;49.798;10.968;2022-08-21T12:47:43;6.72;;;4.60;;
49972;SDS011;35865;49.798;10.968;2022-08-21T12:50:15;5.60;;;4.40;;
49972;SDS011;35865;49.798;10.968;2022-08-21T12:52:48;4.80;;;3.80;;
49972;SDS011;35865;49.798;10.968;2022-08-21T12:55:25;4.35;;;3.80;;
49972;SDS011;35865;49.798;10.968;2022-08-21T12:57:53;4.20;;;3.55;;
49972;SDS011;35865;49.798;10.968;2022-08-21T13:00:21;4.38;;;3.22;;
49972;SDS011;35865;49.798;10.968;2022-08-21T13:02:50;4.47;;;3.47;;
49972;SDS011;35865;49.798;10.968;2022-08-21T13:05:21;4.72;;;3.55;;
49972;SDS011;35865;49.798;10.968;2022-08-21T13:07:54;4.20;;;3.28;;
49972;SDS011;35865;49.798;10.968;2022-08-21T13:10:22;6.00;;;3.30;;
49972;SDS011;35865;49.798;10.968;2022-08-21T13:12:51;3.88;;;2.78;;
49972;SDS011;35865;49.798;10.968;2022-08-21T13:15:23;4.22;;;3.08;;
49972;SDS011;35865;49.798;10.968;2022-08-21T13:17:53;4.65;;;2.95;;
49972;SDS011;35865;49.798;10.968;2022-08-21T13:20:20;4.70;;;2.80;;
49972;SDS011;35865;49.798;10.968;2022-08-21T13:22:49;4.90;;;3.00;;
49972;SDS011;35865;49.798;10.968;2022-08-21T13:25:17;4.97;;;3.08;;
49972;SDS011;35865;49.798;10.968;2022-08-21T13:27:56;6.75;;;3.40;;
49972;SDS011;35865;49.798;10.968;2022-08-21T13:30:40;6.97;;;3.00;;
49972;SDS011;35865;49.798;10.968;2022-08-21T13:33:09;4.90;;;3.13;;
49972;SDS011;35865;49.798;10.968;2022-08-21T13:35:45;3.95;;;3.20;;
49972;SDS011;35865;49.798;10.968;2022-08-21T13:38:13;4.45;;;3.15;;
49972;SDS011;35865;49.798;10.968;2022-08-21T13:40:43;4.55;;;3.13;;
49972;SDS011;35865;49.798;10.968;2022-08-21T13:43:12;6.95;;;3.08;;
49972;SDS011;35865;49.798;10.968;2022-08-21T13:45:44;5.93;;;3.13;;
49972;SDS011;35865;49.798;10.968;2022-08-21T13:48:14;4.63;;;3.45;;
49972;SDS011;35865;49.798;10.968;2022-08-21T13:50:41;4.97;;;3.13;;
49972;SDS011;35865;49.798;10.968;2022-08-21T13:53:19;6.80;;;3.15;;
49972;SDS011;35865;49.798;10.968;2022-08-21T13:55:48;4.18;;;3.22;;
49972;SDS011;35865;49.798;10.968;2022-08-21T13:58:23;3.80;;;3.20;;
49972;SDS011;35865;49.798;10.968;2022-08-21T14:00:54;4.22;;;3.08;;
49972;SDS011;35865;49.798;10.968;2022-08-21T14:03:31;4.75;;;2.97;;
49972;SDS011;35865;49.798;10.968;2022-08-21T14:06:03;4.45;;;2.60;;
49972;SDS011;35865;49.798;10.968;2022-08-21T14:08:37;4.22;;;2.97;;
49972;SDS011;35865;49.798;10.968;2022-08-21T14:11:06;4.15;;;2.92;;
49972;SDS011;35865;49.798;10.968;2022-08-21T14:13:37;4.30;;;3.05;;
49972;SDS011;35865;49.798;10.968;2022-08-21T14:16:15;4.43;;;3.05;;
49972;SDS011;35865;49.798;10.968;2022-08-21T14:18:48;3.78;;;2.80;;
49972;SDS011;35865;49.798;10.968;2022-08-21T14:21:26;4.03;;;3.17;;
49972;SDS011;35865;49.798;10.968;2022-08-21T14:24:05;4.97;;;3.10;;
49972;SDS011;35865;49.798;10.968;2022-08-21T14:26:35;4.35;;;2.92;;
49972;SDS011;35865;49.798;10.968;2022-08-21T14:29:09;6.10;;;3.20;;
49972;SDS011;35865;49.798;10.968;2022-08-21T14:31:40;5.47;;;3.15;;
49972;SDS011;35865;49.798;10.968;2022-08-21T14:34:07;4.10;;;2.75;;
49972;SDS011;35865;49.798;10.968;2022-08-21T14:36:36;4.55;;;2.95;;
49972;SDS011;35865;49.798;10.968;2022-08-21T14:39:02;5.10;;;2.92;;